Latest Weather Observations for Omeo

IDV60801

Issued at 6:32 pm EST Sunday 24 September 2017 (issued every 30 minutes, with the page automatically refreshed every 10 minutes)

About weather observations | Map of weather stations | Latest weather observations for VIC | Other Formats
Station Details ID: 083090 Name: OMEO Lat: -37.10 Lon: 147.60 Height: 689.8 m
Data from the previous 72 hours. | See also: Recent months at Omeo
Date/Time
EST
Temp
°C
App
Temp
°C
Dew
Point
°C
Rel
Hum
%
Delta-T
°C
Wind Press
QNH
hPa
Press
MSL
hPa
Rain since
9am
mm
Dir  Spd
km/h
Gust
km/h
Spd
kts
Gust
kts
24/06:30pm 11.8 5.9 1.7 50 4.5 NNW 22 35 12 19 1001.7 1001.5 0.0
24/06:00pm 12.1 6.1 0.8 46 5.0 NNW 22 32 12 17 1001.3 1001.1 0.0
24/05:30pm 12.7 6.3 0.8 44 5.2 NNW 24 37 13 20 1001.2 1001.0 0.0
24/05:00pm 13.6 5.9 -0.4 38 6.1 NW 30 48 16 26 1000.9 1000.7 0.0
24/04:37pm 13.4 6.1 -0.3 39 5.9 NW 28 48 15 26 1000.8 1000.6 0.0
24/04:30pm 13.6 6.3 0.3 40 5.8 NW 28 41 15 22 1000.6 1000.4 0.0
24/04:00pm 14.2 6.6 0.5 39 6.1 NNW 30 52 16 28 1000.3 1000.1 0.0
24/03:30pm 14.1 6.0 1.1 41 5.8 NNW 33 54 18 29 1000.2 1000.0 0.0
24/03:00pm 13.9 6.1 1.5 43 5.6 NNW 32 54 17 29 1000.2 1000.0 0.0
24/02:55pm 14.0 6.0 1.6 43 5.6 NNW 33 54 18 29 1000.2 1000.0 0.0
24/02:30pm 13.8 7.4 3.0 48 5.0 NNW 26 50 14 27 1000.3 1000.1 0.0
24/02:00pm 14.9 8.0 2.8 44 5.7 NNW 28 59 15 32 1000.5 1000.3 0.0
24/01:30pm 14.6 6.1 3.1 46 5.4 NNW 37 57 20 31 1000.6 1000.4 0.0
24/01:05pm 14.3 7.3 4.0 50 4.9 NNW 30 48 16 26 1000.7 1000.5 0.0
24/01:00pm 14.0 6.8 3.2 48 5.1 NW 30 46 16 25 1000.8 1000.6 0.0
24/12:30pm 13.5 6.8 3.8 52 4.6 NW 28 52 15 28 1001.2 1001.0 0.0
24/12:00pm 12.9 5.6 2.7 50 4.7 NW 30 54 16 29 1001.1 1000.9 0.0
24/11:30am 13.7 6.2 4.3 53 4.5 NW 33 56 18 30 1001.1 1000.9 0.0
24/11:00am 11.9 5.3 4.4 60 3.6 NNW 28 57 15 31 1001.5 1001.3 0.0
24/10:30am 14.2 7.1 3.7 49 5.0 NNW 30 52 16 28 1001.1 1000.9 0.0
24/10:00am 13.3 6.3 2.2 47 5.1 NW 28 46 15 25 1001.2 1001.0 0.0
24/09:30am 14.4 6.6 2.0 43 5.7 NNW 32 54 17 29 1000.8 1000.6 0.0
24/09:00am 13.1 5.4 -0.2 40 5.8 NW 30 54 16 29 1000.8 1000.6 0.0
24/08:30am 12.8 5.7 1.2 45 5.1 NNW 28 50 15 27 1000.0 999.8 0.0
24/08:08am 12.6 4.6 0.7 44 5.2 NNW 32 63 17 34 1000.0 999.8 0.0
24/08:00am 12.3 4.7 0.7 45 5.1 NNW 30 46 16 25 1000.1 999.9 0.0
24/07:59am 12.3 5.1 0.7 45 5.1 NNW 28 46 15 25 1000.1 999.9 0.0
24/07:30am 11.6 5.7 1.5 50 4.5 NNW 22 35 12 19 1000.6 1000.4 0.0
24/07:00am 11.4 5.9 1.6 51 4.4 NNW 20 28 11 15 1000.8 1000.6 0.0
24/06:30am 11.3 5.3 1.3 50 4.4 NNW 22 39 12 21 1000.7 1000.5 0.0
24/06:00am 11.4 5.5 1.6 51 4.4 NNW 22 32 12 17 1000.7 1000.5 0.0
24/05:30am 11.5 5.6 1.7 51 4.3 NNW 22 32 12 17 1000.6 1000.4 0.0
24/05:00am 11.9 6.3 1.5 49 4.6 NNW 20 33 11 18 1000.6 1000.4 0.0
24/04:30am 12.4 7.0 1.1 46 5.0 NNW 19 28 10 15 1000.3 1000.1 0.0
24/04:00am 12.3 7.3 1.6 48 4.8 NW 17 26 9 14 1000.2 1000.0 0.0
24/03:30am 13.0 8.7 1.0 44 5.3 NW 13 24 7 13 999.8 999.5 0.0
24/03:00am 14.2 7.6 -0.6 36 6.4 NW 24 41 13 22 1000.0 999.8 0.0
24/02:30am 14.8 8.6 -4.5 26 7.7 WNW 19 32 10 17 999.4 999.2 0.0
24/02:00am 15.9 10.2 -3.6 26 8.1 NW 17 28 9 15 999.2 999.0 0.0
24/01:30am 16.5 11.6 -3.0 26 8.2 NW 13 20 7 11 998.9 998.7 0.0
24/01:00am 16.5 12.5 0.6 34 7.2 NW 11 20 6 11 999.0 998.8 0.0
24/12:30am 17.1 13.3 1.5 35 7.2 NW 11 15 6 8 998.9 998.7 0.0
24/12:00am 17.7 13.5 1.7 34 7.5 NNW 13 20 7 11 999.0 998.8 0.0
 
Date/Time
EST
Temp
°C
App
Temp
°C
Dew
Point
°C
Rel
Hum
%
Delta-T
°C
Wind Press
QNH
hPa
Press
MSL
hPa
Rain since
9am
mm
Dir  Spd
km/h
Gust
km/h
Spd
kts
Gust
kts
23/11:30pm 18.4 13.5 1.9 33 7.8 NW 17 28 9 15 999.3 999.1 0.0
23/11:00pm 20.0 15.8 3.7 34 8.1 WNW 15 28 8 15 998.8 998.6 0.0
23/10:30pm 19.9 15.7 3.6 34 8.0 NNW 15 22 8 12 998.2 997.9 0.0
23/10:00pm 21.2 17.4 3.9 32 8.7 NNW 13 20 7 11 998.0 997.7 0.0
23/09:30pm 21.8 17.5 3.0 29 9.3 WNW 15 24 8 13 998.3 998.0 0.0
23/09:00pm 21.6 17.7 3.3 30 9.1 NW 13 26 7 14 998.0 997.7 0.0
23/08:30pm 21.5 17.7 3.7 31 8.9 NNW 13 20 7 11 997.6 997.4 0.0
23/08:00pm 21.1 17.2 3.3 31 8.8 NNW 13 24 7 13 997.2 996.9 0.0
23/07:30pm 21.2 17.1 4.3 33 8.5 NNW 15 19 8 10 997.2 996.9 0.0
23/07:00pm 20.3 16.5 3.9 34 8.2 NNW 13 22 7 12 996.9 996.6 0.0
23/06:30pm 20.3 16.6 4.4 35 8.0 NNW 13 17 7 9 996.3 996.1 0.0
23/06:00pm 20.2 17.5 5.8 39 7.5 NW 9 19 5 10 996.2 996.0 0.0
23/05:30pm 21.4 17.5 3.6 31 8.8 N 13 17 7 9 996.1 995.9 0.0
23/05:00pm 21.8 17.5 3.5 30 9.2 NNW 15 22 8 12 996.3 996.1 0.0
23/04:30pm 22.7 16.1 2.2 26 10.0 N 26 43 14 23 996.1 995.9 0.0
23/04:00pm 23.1 17.0 2.6 26 10.2 N 24 39 13 21 996.8 996.5 0.0
23/03:30pm 23.8 16.9 2.6 25 10.5 N 28 46 15 25 998.0 997.7 0.0
23/03:00pm 24.9 16.9 1.7 22 11.5 NNW 33 52 18 28 998.1 997.8 0.0
23/02:30pm 25.8 16.7 1.8 21 11.9 NNW 39 57 21 31 997.8 997.6 0.0
23/02:00pm 26.3 17.8 0.9 19 12.5 NNW 35 59 19 32 998.0 997.7 0.0
23/01:31pm 26.9 19.0 2.1 20 12.4 N 33 54 18 29 998.3 998.0 0.0
23/01:30pm 26.8 19.0 2.7 21 12.2 N 33 46 18 25 998.3 998.0 0.0
23/01:04pm 26.5 18.2 2.4 21 12.1 N 35 54 19 29 998.7 998.5 0.0
23/01:00pm 26.4 18.0 1.7 20 12.3 N 35 52 19 28 998.7 998.5 0.0
23/12:30pm 26.4 17.4 2.3 21 12.1 N 39 57 21 31 999.3 999.1 0.0
23/12:00pm 25.8 17.1 1.8 21 12.0 N 37 59 20 32 999.9 999.7 0.0
23/11:50am 25.8 17.7 3.1 23 11.5 N 35 54 19 29 1000.1 999.9 0.0
23/11:30am 25.2 17.5 3.2 24 11.1 N 33 50 18 27 1000.6 1000.4 0.0
23/11:20am 24.8 16.5 2.3 23 11.2 N 35 54 19 29 1000.8 1000.6 0.0
23/11:00am 24.0 16.5 3.3 26 10.5 N 32 44 17 24 1001.5 1001.3 0.0
23/10:41am 22.6 14.9 2.1 26 10.0 N 32 50 17 27 1002.3 1002.2 0.0
23/10:30am 22.7 15.5 2.8 27 9.8 N 30 44 16 24 1002.7 1002.5 0.0
23/10:00am 20.3 15.3 4.4 35 8.0 NNW 20 33 11 18 1003.9 1003.8 0.0
23/09:30am 18.7 13.5 2.5 34 7.7 NNW 19 26 10 14 1004.8 1004.7 0.0
23/09:00am 14.6 8.9 2.8 45 5.5 NNW 22 32 12 17 1005.4 1005.3 0.0
23/08:30am 12.2 8.0 3.9 57 3.9 NNW 15 22 8 12 1006.0 1005.8 0.0
23/08:00am 8.4 3.9 2.4 66 2.6 NNW 15 20 8 11 1006.0 1005.8 0.0
23/07:30am 7.4 4.7 2.7 72 2.0 NNE 6 11 3 6 1006.7 1006.6 0.0
23/07:00am 5.6 2.8 1.9 77 1.6 NNE 6 11 3 6 1006.8 1006.7 0.0
23/06:30am 4.9 0.7 1.7 80 1.3 NNW 13 19 7 10 1006.8 1006.7 0.0
23/06:00am 4.7 0.5 1.9 82 1.2 NNW 13 17 7 9 1006.7 1006.6 0.0
23/05:30am 4.9 2.1 2.1 82 1.2 NW 6 9 3 5 1007.0 1006.9 0.0
23/05:00am 4.9 1.9 2.3 83 1.1 NW 7 11 4 6 1007.0 1006.9 0.0
23/04:30am 4.5 2.4 1.9 83 1.1 NW 2 7 1 4 1007.4 1007.3 0.0
23/04:00am 4.8 1.8 2.0 82 1.2 NNW 7 11 4 6 1007.5 1007.4 0.0
23/03:30am 5.4 2.0 1.9 78 1.5 NNW 9 11 5 6 1007.7 1007.6 0.0
23/03:00am 6.6 2.5 2.3 74 1.8 NNW 13 17 7 9 1008.0 1007.9 0.0
23/02:30am 7.1 3.4 2.4 72 2.0 NNW 11 17 6 9 1008.2 1008.1 0.0
23/02:00am 7.4 4.1 2.3 70 2.2 NNW 9 13 5 7 1008.5 1008.5 0.0
23/01:30am 8.6 5.6 2.2 64 2.8 NW 7 11 4 6 1009.1 1009.0 0.0
23/01:00am 10.3 6.6 2.2 57 3.6 N 11 15 6 8 1009.6 1009.5 0.0
23/12:30am 10.8 6.4 2.6 57 3.7 N 15 20 8 11 1009.7 1009.6 0.0
23/12:00am 9.4 6.1 2.7 63 3.0 NNW 9 13 5 7 1009.9 1009.9 0.0
 
Date/Time
EST
Temp
°C
App
Temp
°C
Dew
Point
°C
Rel
Hum
%
Delta-T
°C
Wind Press
QNH
hPa
Press
MSL
hPa
Rain since
9am
mm
Dir  Spd
km/h
Gust
km/h
Spd
kts
Gust
kts
22/11:30pm 9.5 6.3 2.8 63 3.0 NNW 9 13 5 7 1010.0 1010.0 0.0
22/11:00pm 9.8 5.8 2.9 62 3.1 NNW 13 17 7 9 1010.0 1010.0 0.0
22/10:30pm 10.1 6.1 2.9 61 3.2 NNW 13 17 7 9 1010.2 1010.2 0.0
22/10:00pm 10.7 6.7 3.0 59 3.5 N 13 20 7 11 1010.4 1010.3 0.0
22/09:30pm 11.1 7.5 2.7 56 3.8 NNW 11 15 6 8 1010.5 1010.4 0.0
22/09:00pm 11.6 8.3 2.6 54 4.1 NNW 9 13 5 7 1010.6 1010.5 0.0
22/08:30pm 11.9 9.0 2.6 53 4.2 NNW 7 11 4 6 1010.8 1010.7 0.0
22/08:00pm 13.3 10.0 2.5 48 4.9 NNW 9 13 5 7 1010.8 1010.7 0.0
22/07:30pm 14.4 11.1 2.3 44 5.6 N 9 13 5 7 1010.8 1010.7 0.0
22/07:00pm 15.0 11.7 2.5 43 5.8 N 9 11 5 6 1010.6 1010.5 0.0
22/06:30pm 16.1 13.1 2.2 39 6.5 NNW 7 11 4 6 1010.6 1010.5 0.0
22/06:00pm 17.3 13.6 2.5 37 7.0 NNW 11 17 6 9 1010.5 1010.4 0.0
22/05:30pm 18.9 14.9 2.7 34 7.8 NNW 13 17 7 9 1010.4 1010.3 0.0
22/05:00pm 20.0 14.9 3.3 33 8.2 N 19 28 10 15 1010.2 1010.2 0.0
22/04:30pm 20.5 14.6 1.9 29 8.9 NNW 22 35 12 19 1009.9 1009.9 0.0
22/04:00pm 21.5 15.5 1.2 26 9.7 NNW 22 30 12 16 1009.7 1009.6 0.0
22/03:30pm 21.9 15.8 0.4 24 10.1 NNW 22 33 12 18 1009.7 1009.6 0.0
22/03:00pm 22.4 16.4 0.9 24 10.2 NNW 22 33 12 18 1009.7 1009.6 0.0
22/02:30pm 22.5 16.7 2.1 26 9.9 NNW 22 39 12 21 1009.7 1009.6 0.0
22/02:00pm 22.1 15.9 2.2 27 9.7 N 24 35 13 19 1009.8 1009.8 0.0
22/01:30pm 21.8 15.6 2.0 27 9.6 N 24 43 13 23 1009.8 1009.8 0.0
22/01:00pm 21.7 15.5 2.4 28 9.4 N 24 37 13 20 1010.2 1010.2 0.0
22/12:30pm 20.7 13.5 0.5 26 9.4 N 28 39 15 21 1010.6 1010.5 0.0
22/12:00pm 20.7 13.4 0.0 25 9.6 N 28 41 15 22 1010.8 1010.7 0.0
22/11:30am 19.7 13.1 -0.3 26 9.1 N 24 37 13 20 1011.1 1011.1 0.0
22/11:00am 18.9 12.8 0.5 29 8.5 NNE 22 39 12 21 1011.4 1011.4 0.0
22/10:30am 16.9 10.0 0.1 32 7.5 N 26 39 14 21 1011.9 1011.8 0.0
22/10:00am 16.6 9.7 0.3 33 7.3 N 26 35 14 19 1012.0 1011.9 0.0
22/09:30am 15.9 9.4 0.5 35 6.9 N 24 35 13 19 1012.2 1012.1 0.0
22/09:00am 14.3 9.2 2.9 46 5.3 NNW 19 26 10 14 1012.2 1012.1 0.0
22/08:30am 13.8 9.1 3.0 48 5.0 N 17 30 9 16 1012.3 1012.3 0.0
22/08:00am 11.1 6.5 3.6 60 3.5 N 17 26 9 14 1012.2 1012.1 0.0
22/07:30am 10.1 4.7 2.7 60 3.3 N 20 26 11 14 1012.2 1012.1 0.0
22/07:00am 8.9 4.1 2.5 64 2.8 N 17 24 9 13 1012.1 1012.0 0.0
22/06:30am 7.7 3.6 2.2 68 2.4 NNW 13 17 7 9 1012.0 1011.9 0.0
22/06:00am 8.3 4.6 2.1 65 2.7 NNW 11 15 6 8 1012.0 1011.9 0.0
22/05:30am 8.4 4.3 2.0 64 2.8 N 13 17 7 9 1012.0 1011.9 0.0
22/05:00am 8.9 4.8 2.0 62 3.0 N 13 15 7 8 1011.6 1011.6 0.0
22/04:30am 8.8 5.1 2.2 63 2.9 N 11 15 6 8 1011.7 1011.7 0.0
22/04:00am 8.9 5.2 2.5 64 2.8 N 11 15 6 8 1011.7 1011.7 0.0
22/03:30am 9.4 5.8 2.7 63 3.0 NNW 11 17 6 9 1011.6 1011.6 0.0
22/03:00am 9.3 5.3 2.6 63 3.0 NNW 13 19 7 10 1011.6 1011.6 0.0
22/02:30am 9.8 6.5 2.6 61 3.2 NNW 9 13 5 7 1012.0 1011.9 0.0
22/02:00am 10.2 7.5 2.8 60 3.3 NNW 6 11 3 6 1012.3 1012.3 0.0
22/01:30am 10.4 7.2 3.0 60 3.3 NNW 9 13 5 7 1012.6 1012.6 0.0
22/01:00am 10.7 6.7 3.0 59 3.5 NNW 13 20 7 11 1012.5 1012.5 0.0
22/12:30am 10.5 5.8 3.1 60 3.3 NNW 17 22 9 12 1012.7 1012.7 0.0
22/12:00am 9.8 5.8 3.1 63 3.0 NNW 13 17 7 9 1012.7 1012.7 0.0
 
Date/Time
EST
Temp
°C
App
Temp
°C
Dew
Point
°C
Rel
Hum
%
Delta-T
°C
Wind Press
QNH
hPa
Press
MSL
hPa
Rain since
9am
mm
Dir  Spd
km/h
Gust
km/h
Spd
kts
Gust
kts
21/11:30pm 10.4 6.5 3.2 61 3.3 NNW 13 17 7 9 1013.0 1013.0 0.0
21/11:00pm 10.9 7.3 3.2 59 3.5 NNW 11 15 6 8 1013.1 1013.1 0.0
21/10:30pm 11.9 7.6 3.4 56 3.9 NNW 15 26 8 14 1013.0 1013.0 0.0
21/10:00pm 11.7 7.1 3.7 58 3.7 NNW 17 24 9 13 1012.9 1012.9 0.0
21/09:30pm 10.9 6.7 3.7 61 3.3 NNW 15 22 8 12 1012.9 1012.9 0.0
21/09:00pm 9.8 7.0 3.1 63 3.0 NNW 7 15 4 8 1013.0 1013.0 0.0
21/08:30pm 10.7 7.8 2.8 58 3.6 N 7 11 4 6 1013.7 1013.7 0.0
21/08:00pm 11.0 7.3 2.6 56 3.8 NNW 11 15 6 8 1013.5 1013.5 0.0
21/07:30pm 11.7 8.1 2.7 54 4.1 NNW 11 15 6 8 1013.5 1013.5 0.0
21/07:00pm 12.1 7.3 2.6 52 4.3 NNW 17 22 9 12 1013.2 1013.2 0.0

Other Formats:

Comma delimited format used in spreadsheet applications
http://www.bom.gov.au/fwo/IDV60801/IDV60801.94908.axf

JavaScript Object Notation format (JSON) in row-major order
http://www.bom.gov.au/fwo/IDV60801/IDV60801.94908.json